sensor_id;sensor_type;location;lat;lon;timestamp;pressure;altitude;pressure_sealevel;temperature;humidity
6565;BME280;3316;44.118;27.258;2023-05-19T00:01:26;101026.50;;;15.86;100.00
6565;BME280;3316;44.118;27.258;2023-05-19T00:03:55;101022.19;;;15.82;100.00
6565;BME280;3316;44.118;27.258;2023-05-19T00:06:23;101025.66;;;15.84;100.00
6565;BME280;3316;44.118;27.258;2023-05-19T00:09:11;101022.13;;;15.85;100.00
6565;BME280;3316;44.118;27.258;2023-05-19T00:11:38;101032.94;;;15.77;100.00
6565;BME280;3316;44.118;27.258;2023-05-19T00:14:08;101021.59;;;15.71;100.00
6565;BME280;3316;44.118;27.258;2023-05-19T00:16:34;101028.66;;;15.70;100.00
6565;BME280;3316;44.118;27.258;2023-05-19T00:19:01;101025.31;;;15.64;100.00
6565;BME280;3316;44.118;27.258;2023-05-19T00:21:28;101021.97;;;15.56;100.00
6565;BME280;3316;44.118;27.258;2023-05-19T00:23:54;101029.00;;;15.58;100.00
6565;BME280;3316;44.118;27.258;2023-05-19T00:26:19;101027.31;;;15.54;100.00
6565;BME280;3316;44.118;27.258;2023-05-19T00:28:47;101045.06;;;15.51;100.00
6565;BME280;3316;44.118;27.258;2023-05-19T00:31:12;101039.91;;;15.46;100.00
6565;BME280;3316;44.118;27.258;2023-05-19T00:33:37;101026.09;;;15.29;100.00
6565;BME280;3316;44.118;27.258;2023-05-19T00:36:03;101020.94;;;15.25;100.00
6565;BME280;3316;44.118;27.258;2023-05-19T00:38:30;101045.63;;;15.27;100.00
6565;BME280;3316;44.118;27.258;2023-05-19T00:40:56;101046.66;;;15.19;100.00
6565;BME280;3316;44.118;27.258;2023-05-19T00:43:22;100990.06;;;14.84;100.00
6565;BME280;3316;44.118;27.258;2023-05-19T00:45:47;101047.44;;;15.25;100.00
6565;BME280;3316;44.118;27.258;2023-05-19T00:48:13;101043.16;;;15.17;100.00
6565;BME280;3316;44.118;27.258;2023-05-19T00:50:39;101039.56;;;15.20;100.00
6565;BME280;3316;44.118;27.258;2023-05-19T00:53:05;101059.78;;;15.26;100.00
6565;BME280;3316;44.118;27.258;2023-05-19T00:55:30;101053.75;;;15.19;100.00
6565;BME280;3316;44.118;27.258;2023-05-19T00:57:56;101051.19;;;15.14;100.00
6565;BME280;3316;44.118;27.258;2023-05-19T01:00:22;101019.88;;;14.93;100.00
6565;BME280;3316;44.118;27.258;2023-05-19T01:02:48;101056.41;;;15.17;100.00
6565;BME280;3316;44.118;27.258;2023-05-19T01:05:15;101059.09;;;15.16;100.00
6565;BME280;3316;44.118;27.258;2023-05-19T01:07:41;101054.75;;;15.13;100.00
6565;BME280;3316;44.118;27.258;2023-05-19T01:10:07;101041.59;;;15.09;100.00
6565;BME280;3316;44.118;27.258;2023-05-19T01:12:34;101056.56;;;15.11;100.00
6565;BME280;3316;44.118;27.258;2023-05-19T01:15:00;101047.97;;;15.00;100.00
6565;BME280;3316;44.118;27.258;2023-05-19T01:17:32;101035.09;;;14.84;100.00
6565;BME280;3316;44.118;27.258;2023-05-19T01:20:08;101036.66;;;14.94;100.00
6565;BME280;3316;44.118;27.258;2023-05-19T01:25:51;101052.28;;;15.04;100.00
6565;BME280;3316;44.118;27.258;2023-05-19T01:31:00;101054.50;;;14.84;100.00
6565;BME280;3316;44.118;27.258;2023-05-19T01:33:27;101071.16;;;14.91;100.00
6565;BME280;3316;44.118;27.258;2023-05-19T01:35:54;101067.44;;;14.98;100.00
6565;BME280;3316;44.118;27.258;2023-05-19T01:38:21;101057.16;;;14.84;100.00
6565;BME280;3316;44.118;27.258;2023-05-19T01:40:48;101067.63;;;14.90;100.00
6565;BME280;3316;44.118;27.258;2023-05-19T01:43:17;101063.19;;;14.91;100.00
6565;BME280;3316;44.118;27.258;2023-05-19T01:45:43;101056.97;;;14.93;100.00
6565;BME280;3316;44.118;27.258;2023-05-19T01:48:09;101056.84;;;14.98;100.00
6565;BME280;3316;44.118;27.258;2023-05-19T01:50:36;101045.28;;;15.02;100.00
6565;BME280;3316;44.118;27.258;2023-05-19T01:53:02;101051.38;;;15.07;100.00
6565;BME280;3316;44.118;27.258;2023-05-19T01:55:27;101048.06;;;14.97;100.00
6565;BME280;3316;44.118;27.258;2023-05-19T01:58:17;101054.03;;;15.07;100.00
6565;BME280;3316;44.118;27.258;2023-05-19T02:03:57;101059.06;;;15.19;100.00
6565;BME280;3316;44.118;27.258;2023-05-19T02:09:22;101064.22;;;15.24;100.00
6565;BME280;3316;44.118;27.258;2023-05-19T02:12:02;101048.63;;;15.11;100.00
6565;BME280;3316;44.118;27.258;2023-05-19T02:14:42;101027.69;;;14.98;100.00
6565;BME280;3316;44.118;27.258;2023-05-19T02:17:11;101066.13;;;15.18;100.00
6565;BME280;3316;44.118;27.258;2023-05-19T02:19:38;101051.06;;;15.21;100.00
6565;BME280;3316;44.118;27.258;2023-05-19T02:22:04;101073.59;;;15.40;100.00
6565;BME280;3316;44.118;27.258;2023-05-19T02:24:30;101072.97;;;15.29;100.00
6565;BME280;3316;44.118;27.258;2023-05-19T02:26:56;101078.19;;;15.32;100.00
6565;BME280;3316;44.118;27.258;2023-05-19T02:29:21;101083.97;;;15.52;100.00
6565;BME280;3316;44.118;27.258;2023-05-19T02:31:47;101081.22;;;15.56;100.00
6565;BME280;3316;44.118;27.258;2023-05-19T02:34:12;101084.75;;;15.55;100.00
6565;BME280;3316;44.118;27.258;2023-05-19T02:36:40;101078.56;;;15.56;100.00
6565;BME280;3316;44.118;27.258;2023-05-19T02:39:10;101081.03;;;15.64;100.00
6565;BME280;3316;44.118;27.258;2023-05-19T02:41:36;101088.56;;;15.80;100.00
6565;BME280;3316;44.118;27.258;2023-05-19T02:44:02;101090.34;;;15.80;100.00
6565;BME280;3316;44.118;27.258;2023-05-19T02:46:27;101092.78;;;15.89;100.00
6565;BME280;3316;44.118;27.258;2023-05-19T02:48:53;101082.13;;;15.90;100.00
6565;BME280;3316;44.118;27.258;2023-05-19T02:51:18;101070.59;;;15.91;100.00
6565;BME280;3316;44.118;27.258;2023-05-19T02:53:44;101084.56;;;15.98;100.00
6565;BME280;3316;44.118;27.258;2023-05-19T02:56:09;101074.84;;;15.98;100.00
6565;BME280;3316;44.118;27.258;2023-05-19T02:58:35;101064.38;;;15.92;100.00
6565;BME280;3316;44.118;27.258;2023-05-19T03:01:00;101084.16;;;16.15;100.00
6565;BME280;3316;44.118;27.258;2023-05-19T03:03:26;101088.38;;;16.22;100.00
6565;BME280;3316;44.118;27.258;2023-05-19T03:05:52;101091.66;;;16.31;100.00
6565;BME280;3316;44.118;27.258;2023-05-19T03:08:18;101085.47;;;16.31;100.00
6565;BME280;3316;44.118;27.258;2023-05-19T03:10:45;101085.47;;;16.32;100.00
6565;BME280;3316;44.118;27.258;2023-05-19T03:13:11;101091.66;;;16.65;100.00
6565;BME280;3316;44.118;27.258;2023-05-19T03:15:36;101072.06;;;16.69;100.00
6565;BME280;3316;44.118;27.258;2023-05-19T03:18:01;101089.63;;;16.74;100.00
6565;BME280;3316;44.118;27.258;2023-05-19T03:20:27;101096.09;;;16.95;100.00
6565;BME280;3316;44.118;27.258;2023-05-19T03:22:55;101102.84;;;17.07;100.00
6565;BME280;3316;44.118;27.258;2023-05-19T03:25:20;101103.31;;;17.21;100.00
6565;BME280;3316;44.118;27.258;2023-05-19T03:27:46;101113.28;;;17.43;100.00
6565;BME280;3316;44.118;27.258;2023-05-19T03:30:12;101122.91;;;17.75;100.00
6565;BME280;3316;44.118;27.258;2023-05-19T03:32:37;101121.72;;;17.85;100.00
6565;BME280;3316;44.118;27.258;2023-05-19T03:35:03;101127.63;;;18.21;100.00
6565;BME280;3316;44.118;27.258;2023-05-19T03:37:30;101145.22;;;18.52;100.00
6565;BME280;3316;44.118;27.258;2023-05-19T03:39:56;101142.81;;;18.70;100.00
6565;BME280;3316;44.118;27.258;2023-05-19T03:42:22;101136.88;;;18.86;100.00
6565;BME280;3316;44.118;27.258;2023-05-19T03:44:47;101139.84;;;19.02;100.00
6565;BME280;3316;44.118;27.258;2023-05-19T03:47:12;101153.66;;;18.90;100.00
6565;BME280;3316;44.118;27.258;2023-05-19T03:49:38;101122.75;;;18.59;100.00
6565;BME280;3316;44.118;27.258;2023-05-19T03:52:03;101136.69;;;18.67;100.00
6565;BME280;3316;44.118;27.258;2023-05-19T03:54:29;101152.50;;;19.20;100.00
6565;BME280;3316;44.118;27.258;2023-05-19T03:56:55;101150.78;;;19.65;100.00
6565;BME280;3316;44.118;27.258;2023-05-19T03:59:21;101151.09;;;19.58;100.00
6565;BME280;3316;44.118;27.258;2023-05-19T04:01:48;101163.91;;;20.14;100.00
6565;BME280;3316;44.118;27.258;2023-05-19T04:04:13;101152.44;;;20.34;100.00
6565;BME280;3316;44.118;27.258;2023-05-19T04:06:39;101168.44;;;20.56;100.00
6565;BME280;3316;44.118;27.258;2023-05-19T04:09:10;101163.19;;;20.11;100.00
6565;BME280;3316;44.118;27.258;2023-05-19T04:11:36;101175.56;;;20.55;100.00
6565;BME280;3316;44.118;27.258;2023-05-19T04:14:03;101174.06;;;21.10;100.00
6565;BME280;3316;44.118;27.258;2023-05-19T04:16:28;101162.41;;;21.11;100.00
6565;BME280;3316;44.118;27.258;2023-05-19T04:18:53;101170.03;;;21.00;100.00
6565;BME280;3316;44.118;27.258;2023-05-19T04:21:19;101180.84;;;21.74;100.00
6565;BME280;3316;44.118;27.258;2023-05-19T04:23:46;101159.69;;;21.31;100.00
6565;BME280;3316;44.118;27.258;2023-05-19T04:26:12;101167.66;;;21.33;100.00
6565;BME280;3316;44.118;27.258;2023-05-19T04:28:39;101180.13;;;21.52;100.00
6565;BME280;3316;44.118;27.258;2023-05-19T04:31:07;101180.19;;;22.06;100.00
6565;BME280;3316;44.118;27.258;2023-05-19T04:33:37;101172.16;;;21.69;100.00
6565;BME280;3316;44.118;27.258;2023-05-19T04:36:04;101183.84;;;22.05;100.00
6565;BME280;3316;44.118;27.258;2023-05-19T04:38:33;101161.69;;;21.83;100.00
6565;BME280;3316;44.118;27.258;2023-05-19T04:40:58;101198.63;;;21.95;100.00
6565;BME280;3316;44.118;27.258;2023-05-19T04:43:25;101190.88;;;21.89;100.00
6565;BME280;3316;44.118;27.258;2023-05-19T04:45:51;101197.47;;;22.18;100.00
6565;BME280;3316;44.118;27.258;2023-05-19T04:48:16;101199.25;;;22.19;100.00
6565;BME280;3316;44.118;27.258;2023-05-19T04:50:42;101202.56;;;22.60;100.00
6565;BME280;3316;44.118;27.258;2023-05-19T04:53:08;101195.53;;;22.57;100.00
6565;BME280;3316;44.118;27.258;2023-05-19T04:55:34;101203.50;;;22.93;97.63
6565;BME280;3316;44.118;27.258;2023-05-19T04:57:59;101219.22;;;22.31;100.00
6565;BME280;3316;44.118;27.258;2023-05-19T05:00:25;101211.09;;;22.49;100.00
6565;BME280;3316;44.118;27.258;2023-05-19T05:02:50;101223.28;;;23.08;97.11
6565;BME280;3316;44.118;27.258;2023-05-19T05:05:16;101212.97;;;23.34;94.42
6565;BME280;3316;44.118;27.258;2023-05-19T05:07:41;101219.91;;;23.38;93.03
6565;BME280;3316;44.118;27.258;2023-05-19T05:10:07;101229.63;;;22.37;99.43
6565;BME280;3316;44.118;27.258;2023-05-19T05:12:34;101225.44;;;22.31;100.00
6565;BME280;3316;44.118;27.258;2023-05-19T05:15:00;101226.84;;;22.02;100.00
6565;BME280;3316;44.118;27.258;2023-05-19T05:17:25;101224.91;;;21.87;100.00
6565;BME280;3316;44.118;27.258;2023-05-19T05:19:52;101234.31;;;21.96;100.00
6565;BME280;3316;44.118;27.258;2023-05-19T05:22:18;101232.72;;;22.10;100.00
6565;BME280;3316;44.118;27.258;2023-05-19T05:27:09;101243.94;;;21.81;100.00
6565;BME280;3316;44.118;27.258;2023-05-19T05:29:34;101237.03;;;21.76;100.00
6565;BME280;3316;44.118;27.258;2023-05-19T05:32:01;101236.03;;;21.78;100.00
6565;BME280;3316;44.118;27.258;2023-05-19T05:34:26;101241.69;;;21.72;100.00
6565;BME280;3316;44.118;27.258;2023-05-19T05:36:52;101237.22;;;21.91;100.00
6565;BME280;3316;44.118;27.258;2023-05-19T05:39:17;101232.50;;;22.15;100.00
6565;BME280;3316;44.118;27.258;2023-05-19T05:41:42;101240.97;;;22.25;100.00
6565;BME280;3316;44.118;27.258;2023-05-19T05:44:08;101243.75;;;22.40;100.00
6565;BME280;3316;44.118;27.258;2023-05-19T05:46:33;101238.00;;;22.83;97.74
6565;BME280;3316;44.118;27.258;2023-05-19T05:48:59;101241.84;;;23.29;95.61
6565;BME280;3316;44.118;27.258;2023-05-19T05:51:25;101241.53;;;23.18;94.22
6565;BME280;3316;44.118;27.258;2023-05-19T05:53:53;101245.34;;;23.14;93.29
6565;BME280;3316;44.118;27.258;2023-05-19T05:56:19;101242.66;;;22.97;93.83
6565;BME280;3316;44.118;27.258;2023-05-19T05:58:46;101237.59;;;23.08;93.47
6565;BME280;3316;44.118;27.258;2023-05-19T06:01:11;101244.44;;;23.48;90.73
6565;BME280;3316;44.118;27.258;2023-05-19T06:03:41;101242.59;;;23.65;89.17
6565;BME280;3316;44.118;27.258;2023-05-19T06:06:09;101236.00;;;23.71;88.69
6565;BME280;3316;44.118;27.258;2023-05-19T06:08:35;101252.94;;;23.40;88.90
6565;BME280;3316;44.118;27.258;2023-05-19T06:11:01;101254.59;;;23.09;93.09
6565;BME280;3316;44.118;27.258;2023-05-19T06:13:33;101249.59;;;23.35;90.69
6565;BME280;3316;44.118;27.258;2023-05-19T06:15:58;101254.88;;;23.20;91.47
6565;BME280;3316;44.118;27.258;2023-05-19T06:18:24;101258.66;;;23.16;91.21
6565;BME280;3316;44.118;27.258;2023-05-19T06:20:49;101257.66;;;23.01;92.46
6565;BME280;3316;44.118;27.258;2023-05-19T06:23:15;101253.53;;;23.28;90.69
6565;BME280;3316;44.118;27.258;2023-05-19T06:25:40;101238.53;;;22.73;92.45
6565;BME280;3316;44.118;27.258;2023-05-19T06:28:06;101262.66;;;22.37;95.06
6565;BME280;3316;44.118;27.258;2023-05-19T06:30:31;101253.81;;;22.54;94.20
6565;BME280;3316;44.118;27.258;2023-05-19T06:32:57;101244.56;;;22.78;94.13
6565;BME280;3316;44.118;27.258;2023-05-19T06:35:22;101214.56;;;22.70;92.50
6565;BME280;3316;44.118;27.258;2023-05-19T06:37:47;101237.22;;;22.81;90.77
6565;BME280;3316;44.118;27.258;2023-05-19T06:40:13;101255.66;;;23.22;90.22
6565;BME280;3316;44.118;27.258;2023-05-19T06:42:39;101244.16;;;23.69;88.29
6565;BME280;3316;44.118;27.258;2023-05-19T06:45:04;101241.75;;;23.80;85.87
6565;BME280;3316;44.118;27.258;2023-05-19T06:47:30;101248.91;;;23.64;85.78
6565;BME280;3316;44.118;27.258;2023-05-19T06:49:56;101221.81;;;23.36;87.03
6565;BME280;3316;44.118;27.258;2023-05-19T06:52:22;101255.16;;;23.65;86.05
6565;BME280;3316;44.118;27.258;2023-05-19T06:54:48;101252.63;;;24.10;83.96
6565;BME280;3316;44.118;27.258;2023-05-19T06:57:14;101261.56;;;24.57;80.57
6565;BME280;3316;44.118;27.258;2023-05-19T06:59:40;101264.41;;;24.54;80.09
6565;BME280;3316;44.118;27.258;2023-05-19T07:02:07;101263.28;;;24.43;80.56
6565;BME280;3316;44.118;27.258;2023-05-19T07:04:32;101257.78;;;24.76;80.59
6565;BME280;3316;44.118;27.258;2023-05-19T07:06:58;101257.28;;;24.99;78.54
6565;BME280;3316;44.118;27.258;2023-05-19T07:09:23;101259.16;;;25.12;76.71
6565;BME280;3316;44.118;27.258;2023-05-19T07:11:49;101260.22;;;25.10;77.28
6565;BME280;3316;44.118;27.258;2023-05-19T07:14:14;101264.44;;;25.57;74.35
6565;BME280;3316;44.118;27.258;2023-05-19T07:16:40;101252.63;;;25.02;75.24
6565;BME280;3316;44.118;27.258;2023-05-19T07:19:05;101262.19;;;24.92;77.09
6565;BME280;3316;44.118;27.258;2023-05-19T07:21:30;101255.94;;;25.35;75.84
6565;BME280;3316;44.118;27.258;2023-05-19T07:23:56;101255.19;;;25.33;71.62
6565;BME280;3316;44.118;27.258;2023-05-19T07:26:21;101257.34;;;24.83;72.65
6565;BME280;3316;44.118;27.258;2023-05-19T07:28:47;101261.84;;;24.98;71.55
6565;BME280;3316;44.118;27.258;2023-05-19T07:31:13;101255.38;;;24.71;72.47
6565;BME280;3316;44.118;27.258;2023-05-19T07:33:39;101266.03;;;24.88;71.84
6565;BME280;3316;44.118;27.258;2023-05-19T07:36:05;101268.66;;;25.33;70.97
6565;BME280;3316;44.118;27.258;2023-05-19T07:38:30;101249.13;;;25.44;70.39
6565;BME280;3316;44.118;27.258;2023-05-19T07:40:59;101259.44;;;25.66;68.20
6565;BME280;3316;44.118;27.258;2023-05-19T07:43:24;101262.13;;;25.94;67.88
6565;BME280;3316;44.118;27.258;2023-05-19T07:45:50;101250.09;;;25.99;66.89
6565;BME280;3316;44.118;27.258;2023-05-19T07:48:15;101257.19;;;26.28;66.10
6565;BME280;3316;44.118;27.258;2023-05-19T07:50:42;101262.09;;;26.22;65.87
6565;BME280;3316;44.118;27.258;2023-05-19T07:53:08;101267.81;;;26.03;66.55
6565;BME280;3316;44.118;27.258;2023-05-19T07:55:33;101266.00;;;26.44;64.07
6565;BME280;3316;44.118;27.258;2023-05-19T07:57:59;101255.69;;;25.82;64.98
6565;BME280;3316;44.118;27.258;2023-05-19T08:00:24;101260.34;;;25.22;66.38
6565;BME280;3316;44.118;27.258;2023-05-19T08:02:50;101268.78;;;25.46;66.76
6565;BME280;3316;44.118;27.258;2023-05-19T08:05:17;101266.88;;;25.62;65.63
6565;BME280;3316;44.118;27.258;2023-05-19T08:07:42;101254.63;;;25.85;66.03
6565;BME280;3316;44.118;27.258;2023-05-19T08:10:08;101263.09;;;25.50;66.42
6565;BME280;3316;44.118;27.258;2023-05-19T08:12:33;101261.19;;;25.52;67.01
6565;BME280;3316;44.118;27.258;2023-05-19T08:14:59;101276.19;;;25.85;67.12
6565;BME280;3316;44.118;27.258;2023-05-19T08:17:24;101248.28;;;25.86;66.52
6565;BME280;3316;44.118;27.258;2023-05-19T08:19:50;101266.66;;;25.65;64.66
6565;BME280;3316;44.118;27.258;2023-05-19T08:22:15;101258.50;;;25.52;64.62
6565;BME280;3316;44.118;27.258;2023-05-19T08:24:40;101279.75;;;25.85;64.11
6565;BME280;3316;44.118;27.258;2023-05-19T08:27:07;101266.16;;;26.01;63.38
6565;BME280;3316;44.118;27.258;2023-05-19T08:29:32;101234.28;;;26.21;64.04
6565;BME280;3316;44.118;27.258;2023-05-19T08:31:58;101274.66;;;26.23;62.69
6565;BME280;3316;44.118;27.258;2023-05-19T08:34:24;101274.66;;;26.09;63.07
6565;BME280;3316;44.118;27.258;2023-05-19T08:36:49;101273.94;;;26.33;62.55
6565;BME280;3316;44.118;27.258;2023-05-19T08:39:15;101272.31;;;26.31;61.83
6565;BME280;3316;44.118;27.258;2023-05-19T08:41:43;101271.47;;;26.16;59.89
6565;BME280;3316;44.118;27.258;2023-05-19T08:44:08;101269.91;;;26.53;58.04
6565;BME280;3316;44.118;27.258;2023-05-19T08:46:34;101270.16;;;26.77;57.87
6565;BME280;3316;44.118;27.258;2023-05-19T08:49:10;101280.53;;;26.83;58.71
6565;BME280;3316;44.118;27.258;2023-05-19T08:54:15;101272.78;;;26.91;59.20
6565;BME280;3316;44.118;27.258;2023-05-19T08:56:43;101266.56;;;26.76;59.25
6565;BME280;3316;44.118;27.258;2023-05-19T08:59:09;101283.81;;;27.40;58.35
6565;BME280;3316;44.118;27.258;2023-05-19T09:01:35;101274.25;;;27.09;56.05
6565;BME280;3316;44.118;27.258;2023-05-19T09:04:02;101261.31;;;27.39;56.42
6565;BME280;3316;44.118;27.258;2023-05-19T09:06:28;101268.88;;;27.72;55.69
6565;BME280;3316;44.118;27.258;2023-05-19T09:08:56;101269.75;;;27.85;55.77
6565;BME280;3316;44.118;27.258;2023-05-19T09:11:22;101265.00;;;27.51;54.37
6565;BME280;3316;44.118;27.258;2023-05-19T09:13:47;101263.94;;;27.53;56.14
6565;BME280;3316;44.118;27.258;2023-05-19T09:16:13;101249.88;;;27.61;55.02
6565;BME280;3316;44.118;27.258;2023-05-19T09:18:39;101258.97;;;27.35;54.11
6565;BME280;3316;44.118;27.258;2023-05-19T09:21:05;101263.63;;;27.58;54.89
6565;BME280;3316;44.118;27.258;2023-05-19T09:23:32;101259.06;;;27.83;54.42
6565;BME280;3316;44.118;27.258;2023-05-19T09:26:01;101260.88;;;27.83;52.29
6565;BME280;3316;44.118;27.258;2023-05-19T09:28:29;101270.00;;;27.69;53.12
6565;BME280;3316;44.118;27.258;2023-05-19T09:30:59;101264.03;;;27.77;50.66
6565;BME280;3316;44.118;27.258;2023-05-19T09:33:25;101259.81;;;27.98;50.81
6565;BME280;3316;44.118;27.258;2023-05-19T09:35:53;101247.25;;;27.84;50.35
6565;BME280;3316;44.118;27.258;2023-05-19T09:38:19;101252.66;;;27.72;50.99
6565;BME280;3316;44.118;27.258;2023-05-19T09:40:47;101246.81;;;27.78;50.47
6565;BME280;3316;44.118;27.258;2023-05-19T09:43:13;101258.09;;;27.97;49.95
6565;BME280;3316;44.118;27.258;2023-05-19T09:45:38;101230.19;;;27.59;49.94
6565;BME280;3316;44.118;27.258;2023-05-19T09:48:04;101242.19;;;27.67;48.59
6565;BME280;3316;44.118;27.258;2023-05-19T09:50:30;101245.75;;;27.68;48.81
6565;BME280;3316;44.118;27.258;2023-05-19T09:52:56;101235.09;;;27.90;48.05
6565;BME280;3316;44.118;27.258;2023-05-19T09:55:25;101228.44;;;27.83;48.63
6565;BME280;3316;44.118;27.258;2023-05-19T09:57:54;101228.88;;;28.26;49.24
6565;BME280;3316;44.118;27.258;2023-05-19T10:00:20;101239.94;;;28.46;45.63
6565;BME280;3316;44.118;27.258;2023-05-19T10:02:47;101239.69;;;28.62;43.43
6565;BME280;3316;44.118;27.258;2023-05-19T10:05:18;101232.41;;;28.62;43.58
6565;BME280;3316;44.118;27.258;2023-05-19T10:07:52;101224.53;;;28.94;43.28
6565;BME280;3316;44.118;27.258;2023-05-19T10:10:18;101222.66;;;28.36;43.99
6565;BME280;3316;44.118;27.258;2023-05-19T10:12:45;101229.97;;;28.23;44.29
6565;BME280;3316;44.118;27.258;2023-05-19T10:15:12;101225.38;;;28.00;43.40
6565;BME280;3316;44.118;27.258;2023-05-19T10:17:39;101225.56;;;28.09;43.85
6565;BME280;3316;44.118;27.258;2023-05-19T10:20:13;101225.47;;;27.86;43.26
6565;BME280;3316;44.118;27.258;2023-05-19T10:22:44;101224.50;;;27.99;41.56
6565;BME280;3316;44.118;27.258;2023-05-19T10:25:11;101211.59;;;28.15;41.47
6565;BME280;3316;44.118;27.258;2023-05-19T10:27:45;101223.59;;;28.71;40.39
6565;BME280;3316;44.118;27.258;2023-05-19T10:30:19;101216.66;;;28.67;40.57
6565;BME280;3316;44.118;27.258;2023-05-19T10:32:46;101216.25;;;28.13;41.76
6565;BME280;3316;44.118;27.258;2023-05-19T10:40:42;101200.28;;;27.85;42.63
6565;BME280;3316;44.118;27.258;2023-05-19T10:45:55;101196.03;;;27.58;42.48
6565;BME280;3316;44.118;27.258;2023-05-19T10:48:21;101188.41;;;27.75;42.27
6565;BME280;3316;44.118;27.258;2023-05-19T10:50:52;101186.28;;;27.91;40.84
6565;BME280;3316;44.118;27.258;2023-05-19T10:53:18;101185.41;;;27.55;40.94
6565;BME280;3316;44.118;27.258;2023-05-19T10:55:52;101193.84;;;27.63;41.61
6565;BME280;3316;44.118;27.258;2023-05-19T11:01:20;101198.06;;;27.16;42.47
6565;BME280;3316;44.118;27.258;2023-05-19T11:03:55;101165.41;;;27.19;41.69
6565;BME280;3316;44.118;27.258;2023-05-19T11:06:26;101184.13;;;27.22;42.67
6565;BME280;3316;44.118;27.258;2023-05-19T11:11:20;101178.06;;;27.31;42.59
6565;BME280;3316;44.118;27.258;2023-05-19T11:13:49;101182.28;;;27.61;41.96
6565;BME280;3316;44.118;27.258;2023-05-19T11:16:17;101189.25;;;27.76;41.31
6565;BME280;3316;44.118;27.258;2023-05-19T11:18:47;101187.81;;;27.34;41.60
6565;BME280;3316;44.118;27.258;2023-05-19T11:21:13;101191.94;;;27.40;42.34
6565;BME280;3316;44.118;27.258;2023-05-19T11:23:39;101140.88;;;27.22;41.93
6565;BME280;3316;44.118;27.258;2023-05-19T11:26:06;101189.88;;;27.43;42.30
6565;BME280;3316;44.118;27.258;2023-05-19T11:28:32;101175.47;;;27.05;42.57
6565;BME280;3316;44.118;27.258;2023-05-19T11:30:59;101173.28;;;26.85;42.88
6565;BME280;3316;44.118;27.258;2023-05-19T11:33:25;101178.38;;;27.02;42.70
6565;BME280;3316;44.118;27.258;2023-05-19T11:35:53;101177.97;;;27.46;42.28
6565;BME280;3316;44.118;27.258;2023-05-19T11:38:19;101161.53;;;27.97;41.56
6565;BME280;3316;44.118;27.258;2023-05-19T11:40:47;101156.22;;;28.32;39.81
6565;BME280;3316;44.118;27.258;2023-05-19T11:43:14;101152.22;;;28.49;39.80
6565;BME280;3316;44.118;27.258;2023-05-19T11:45:41;101165.91;;;28.11;40.68
6565;BME280;3316;44.118;27.258;2023-05-19T11:48:10;101164.34;;;27.47;42.63
6565;BME280;3316;44.118;27.258;2023-05-19T11:50:36;101164.44;;;27.08;43.99
6565;BME280;3316;44.118;27.258;2023-05-19T11:53:02;101164.44;;;27.08;44.14
6565;BME280;3316;44.118;27.258;2023-05-19T11:55:28;101163.38;;;27.10;43.34
6565;BME280;3316;44.118;27.258;2023-05-19T11:58:03;101164.38;;;27.35;42.59
6565;BME280;3316;44.118;27.258;2023-05-19T12:00:29;101162.91;;;27.67;42.05
6565;BME280;3316;44.118;27.258;2023-05-19T12:02:56;101164.91;;;27.88;41.34
6565;BME280;3316;44.118;27.258;2023-05-19T12:05:25;101164.88;;;28.01;40.87
6565;BME280;3316;44.118;27.258;2023-05-19T12:07:52;101160.69;;;28.21;39.59
6565;BME280;3316;44.118;27.258;2023-05-19T12:10:24;101159.66;;;28.10;39.86
6565;BME280;3316;44.118;27.258;2023-05-19T12:12:50;101159.50;;;27.76;40.08
6565;BME280;3316;44.118;27.258;2023-05-19T12:15:20;101161.84;;;27.57;40.69
6565;BME280;3316;44.118;27.258;2023-05-19T12:17:57;101201.50;;;27.06;41.25
6565;BME280;3316;44.118;27.258;2023-05-19T12:20:24;101198.94;;;26.12;43.98
6565;BME280;3316;44.118;27.258;2023-05-19T12:22:51;101216.63;;;25.47;47.61
6565;BME280;3316;44.118;27.258;2023-05-19T12:25:17;101180.41;;;24.79;50.25
6565;BME280;3316;44.118;27.258;2023-05-19T12:27:43;101216.84;;;24.55;52.72
6565;BME280;3316;44.118;27.258;2023-05-19T12:30:10;101228.25;;;24.13;52.11
6565;BME280;3316;44.118;27.258;2023-05-19T12:32:36;101168.09;;;23.36;51.45
6565;BME280;3316;44.118;27.258;2023-05-19T12:35:03;101240.72;;;23.50;52.97
6565;BME280;3316;44.118;27.258;2023-05-19T12:37:30;101249.84;;;22.96;62.75
6565;BME280;3316;44.118;27.258;2023-05-19T12:39:58;101259.63;;;22.45;62.61
6565;BME280;3316;44.118;27.258;2023-05-19T12:42:26;101307.63;;;22.13;67.88
6565;BME280;3316;44.118;27.258;2023-05-19T12:44:56;101338.09;;;21.72;71.75
6565;BME280;3316;44.118;27.258;2023-05-19T12:47:32;101337.59;;;21.44;80.36
6565;BME280;3316;44.118;27.258;2023-05-19T12:52:25;101314.69;;;20.95;94.60
6565;BME280;3316;44.118;27.258;2023-05-19T12:54:58;101317.03;;;20.83;100.00
6565;BME280;3316;44.118;27.258;2023-05-19T12:57:26;101285.16;;;20.98;100.00
6565;BME280;3316;44.118;27.258;2023-05-19T12:59:51;101246.00;;;21.36;100.00
6565;BME280;3316;44.118;27.258;2023-05-19T13:02:17;101265.38;;;21.43;100.00
6565;BME280;3316;44.118;27.258;2023-05-19T13:04:43;101213.34;;;21.48;100.00
6565;BME280;3316;44.118;27.258;2023-05-19T13:07:08;101195.91;;;21.58;100.00
6565;BME280;3316;44.118;27.258;2023-05-19T13:09:34;101175.22;;;21.43;100.00
6565;BME280;3316;44.118;27.258;2023-05-19T13:12:00;101165.50;;;21.59;100.00
6565;BME280;3316;44.118;27.258;2023-05-19T13:14:26;101172.13;;;21.89;100.00
6565;BME280;3316;44.118;27.258;2023-05-19T13:16:51;101168.06;;;21.99;100.00
6565;BME280;3316;44.118;27.258;2023-05-19T13:19:18;101171.09;;;22.28;100.00
6565;BME280;3316;44.118;27.258;2023-05-19T13:21:44;101155.50;;;22.36;96.24
6565;BME280;3316;44.118;27.258;2023-05-19T13:24:15;101171.16;;;22.62;88.31
6565;BME280;3316;44.118;27.258;2023-05-19T13:26:40;101146.22;;;22.60;87.28